Latest Coastal Weather Observations for Bellambi

IDN60701

Issued at 11:52 am EST Thursday 25 April 2024 (issued every 10 minutes, with the page automatically refreshed every 10 minutes)

About coastal observations | Map of coastal stations | Coastal observations for NSW | Marine services | Other Formats
Station Details ID: 068228 Name: BELLAMBI AWS Lat: -34.37 Lon: 150.93 Height: 10.0 m
Data from the previous 72 hours. | See also: Recent months at Bellambi
Date/Time
EST
Wind Sea
Height
m
Swell Vis
km
Cloud Weather Temp
°C
Press
MSL
hPa
Rain since
9am
mm
Dir  Spd
kts
Gust
kts
Height
m
Period
s
Dir
25/11:30am SE 7 10 - - - - - - - 19.0 - 0.0
25/11:00am SSE 8 10 - - - - - - - 19.1 - 0.0
25/10:30am SSE 8 10 - - - - - - - 18.7 - 0.0
25/10:00am S 9 11 - - - - - - - 18.6 - 0.0
25/09:30am SSW 8 10 - - - - - - - 17.8 - 0.0
25/09:00am SSW 7 10 - - - - - - - 17.6 - 0.0
25/08:30am SW 7 11 - - - - - - - 16.9 - 0.0
25/08:00am SW 6 8 - - - - - - - 15.9 - 0.0
25/07:30am WSW 6 8 - - - - - - - 14.8 - 0.0
25/07:00am WSW 7 8 - - - - - - - 13.8 - 0.0
25/06:30am WSW 7 8 - - - - - - - 13.2 - 0.0
25/06:00am WSW 7 9 - - - - - - - 13.5 - 0.0
25/05:30am SW 7 9 - - - - - - - 13.8 - 0.0
25/05:00am SW 8 10 - - - - - - - 14.1 - 0.0
25/04:30am WSW 7 9 - - - - - - - 13.9 - 0.0
25/04:00am WSW 7 9 - - - - - - - 14.0 - 0.0
25/03:30am WSW 7 10 - - - - - - - 14.1 - 0.0
25/03:00am WSW 8 10 - - - - - - - 14.3 - 0.0
25/02:30am WSW 8 10 - - - - - - - 14.7 - 0.0
25/02:00am SW 9 11 - - - - - - - 14.9 - 0.0
25/01:30am WSW 8 9 - - - - - Partly cloudy - 15.0 - 0.0
25/01:00am WSW 8 10 - - - - - - - 15.1 - 0.0
25/12:30am WSW 7 9 - - - - - - - 15.1 - 0.0
25/12:00am WSW 8 10 - - - - - Mostly clear - 15.2 - 0.0
 
Date/Time
EST
Wind Sea
Height
m
Swell Vis
km
Cloud Weather Temp
°C
Press
MSL
hPa
Rain since
9am
mm
Dir  Spd
kts
Gust
kts
Height
m
Period
s
Dir
24/11:30pm SW 8 9 - - - - - Partly cloudy - 15.4 - 0.0
24/11:00pm WSW 8 9 - - - - - - - 15.5 - 0.0
24/10:30pm WSW 8 10 - - - - - Partly cloudy - 15.7 - 0.0
24/10:00pm WSW 8 9 - - - - - Partly cloudy - 15.9 - 0.0
24/09:30pm WSW 8 11 - - - - - Partly cloudy - 16.4 - 0.0
24/09:00pm S 15 19 - - - - - Cloudy - 17.9 - 0.0
24/08:30pm S 16 18 - - - - - Cloudy - 18.2 - 0.0
24/08:00pm S 17 21 - - - - - Partly cloudy - 18.1 - 0.0
24/07:30pm S 17 21 - - - - - Partly cloudy - 18.2 - 0.0
24/07:00pm SSE 19 24 - - - - - Partly cloudy - 18.2 - 0.0
24/06:30pm S 19 23 - - - - - Cloudy - 18.5 - 0.0
24/06:00pm S 18 21 - - - - - Mostly cloudy - 18.5 - 0.0
24/05:30pm S 18 23 - - - - - Cloudy - 18.4 - 0.0
24/05:00pm S 20 23 - - - - - Cloudy - 18.5 - 0.0
24/04:30pm S 20 24 - - - - - Partly cloudy - 18.8 - 0.0
24/04:00pm S 24 29 - - - - - Partly cloudy - 19.2 - 0.0
24/03:30pm SSW 18 30 - - - - - - - 20.7 - 0.0
24/03:27pm SSW 15 30 - - - - - - - 21.6 - 0.0
24/03:00pm WSW 8 12 - - - - - - - 25.0 - 0.0
24/02:30pm SW 12 17 - - - - - - - 24.5 - 0.0
24/02:00pm WSW 7 11 - - - - - - - 25.0 - 0.0
24/01:30pm W 9 14 - - - - - - - 25.6 - 0.0
24/01:00pm WNW 9 13 - - - - - - - 25.2 - 0.0
24/12:30pm NW 5 8 - - - - - - - 24.6 - 0.0
24/12:00pm NW 6 9 - - - - - - - 23.8 - 0.0
24/11:30am NW 7 10 - - - - - - - 22.2 - 0.0
24/11:00am NW 10 15 - - - - - - - 21.6 - 0.0
24/10:30am NW 10 11 - - - - - - - 20.6 - 0.0
24/10:00am NW 8 10 - - - - - - - 20.1 - 0.0
24/09:30am NW 9 11 - - - - - - - 19.7 - 0.0
24/09:00am NW 8 11 - - - - - - - 19.9 - 0.0
24/08:30am NW 5 7 - - - - - - - 18.8 - 0.0
24/08:00am NW 5 6 - - - - - - - 17.9 - 0.0
24/07:30am NW 5 6 - - - - - - - 18.0 - 0.0
24/07:00am N 8 12 - - - - - - - 20.1 - 0.0
24/06:30am N 8 11 - - - - - - - 20.3 - 0.0
24/06:00am N 7 11 - - - - - - - 19.6 - 0.0
24/05:30am N 9 13 - - - - - - - 19.6 - 0.0
24/05:00am NNW 3 6 - - - - - - - 17.8 - 0.0
24/04:30am N 9 13 - - - - - - - 19.9 - 0.0
24/04:00am NW 3 6 - - - - - - - 18.0 - 0.0
24/03:30am NNW 10 14 - - - - - - - 19.6 - 0.0
24/03:00am N 9 13 - - - - - - - 19.3 - 0.0
24/02:30am N 8 12 - - - - - - - 19.3 - 0.0
24/02:00am NNW 5 9 - - - - - - - 19.1 - 0.0
24/01:30am NNW 4 9 - - - - - - - 19.1 - 0.0
24/01:00am NNE 8 11 - - - - - - - 19.5 - 0.0
24/12:30am N 9 12 - - - - - - - 19.7 - 0.0
24/12:00am WNW 4 5 - - - - - - - 17.8 - 0.0
 
Date/Time
EST
Wind Sea
Height
m
Swell Vis
km
Cloud Weather Temp
°C
Press
MSL
hPa
Rain since
9am
mm
Dir  Spd
kts
Gust
kts
Height
m
Period
s
Dir
23/11:30pm NNW 7 10 - - - - - - - 19.1 - 0.0
23/11:00pm NNW 5 7 - - - - - Partly cloudy - 18.5 - 0.0
23/10:30pm NW 6 10 - - - - - - - 18.8 - 0.0
23/10:00pm NW 8 12 - - - - - - - 19.6 - 0.0
23/09:30pm W 4 6 - - - - - - - 19.1 - 0.0
23/09:00pm WNW 1 4 - - - - - - - 19.4 - 0.0
23/08:30pm N 5 8 - - - - - - - 20.4 - 0.0
23/08:00pm N 9 10 - - - - - - - 20.4 - 0.0
23/07:30pm NNW 7 9 - - - - - - - 19.7 - 0.0
23/07:00pm N 4 5 - - - - - - - 19.9 - 0.0
23/06:30pm N 8 10 - - - - - - - 20.3 - 0.0
23/06:00pm N 11 14 - - - - - - - 20.8 - 0.0
23/05:30pm NNE 13 17 - - - - - - - 21.1 - 0.0
23/05:00pm NE 15 19 - - - - - - - 21.3 - 0.0
23/04:30pm NNE 16 20 - - - - - - - 21.5 - 0.0
23/04:00pm NE 17 22 - - - - - - - 21.7 - 0.0
23/03:30pm NE 16 20 - - - - - - - 21.8 - 0.0
23/03:00pm NE 16 20 - - - - - - - 21.8 - 0.0
23/02:30pm NE 17 19 - - - - - - - 21.8 - 0.0
23/02:00pm NE 17 19 - - - - - - - 21.9 - 0.0
23/01:30pm NE 18 20 - - - - - - - 21.8 - 0.0
23/01:00pm NE 16 18 - - - - - - - 22.3 - 0.0
23/12:30pm NE 13 15 - - - - - - - 23.0 - 0.0
23/12:00pm NE 11 14 - - - - - - - 23.3 - 0.0
23/11:30am NE 8 12 - - - - - - - 23.1 - 0.0
23/11:00am NNE 5 7 - - - - - - - 23.9 - 0.0
23/10:30am N 11 17 - - - - - - - 22.7 - 0.0
23/10:00am ENE 5 7 - - - - - - - 22.3 - 0.0
23/09:30am NW 7 10 - - - - - - - 21.7 - 0.0
23/09:00am NNW 13 17 - - - - - - - 20.6 - 0.0
23/08:30am NW 10 17 - - - - - - - 20.1 - 0.0
23/08:00am WNW 12 17 - - - - - - - 19.3 - 0.0
23/07:30am NW 11 17 - - - - - - - 18.7 - 0.0
23/07:00am NW 10 14 - - - - - - - 18.0 - 0.0
23/06:30am NNW 10 16 - - - - - - - 17.2 - 0.0
23/06:00am NNW 9 15 - - - - - - - 17.2 - 0.0
23/05:30am NNW 10 14 - - - - - - - 17.7 - 0.0
23/05:00am NW 10 15 - - - - - - - 18.2 - 0.0
23/04:30am NW 7 10 - - - - - - - 18.0 - 0.0
23/04:00am N 8 12 - - - - - - - 18.6 - 0.0
23/03:30am N 10 17 - - - - - - - 19.0 - 0.0
23/03:00am N 9 15 - - - - - - - 18.7 - 0.0
23/02:30am N 6 10 - - - - - - - 18.1 - 0.0
23/02:00am N 6 10 - - - - - - - 18.8 - 0.0
23/01:30am N 12 17 - - - - - - - 19.4 - 0.0
23/01:00am NNW 11 16 - - - - - - - 19.1 - 0.0
23/12:30am N 12 16 - - - - - - - 19.1 - 0.0
23/12:00am NNW 13 15 - - - - - - - 19.1 - 0.0
 
Date/Time
EST
Wind Sea
Height
m
Swell Vis
km
Cloud Weather Temp
°C
Press
MSL
hPa
Rain since
9am
mm
Dir  Spd
kts
Gust
kts
Height
m
Period
s
Dir
22/11:30pm NNW 9 12 - - - - - - - 19.1 - 0.0
22/11:00pm NNW 7 9 - - - - - - - 18.8 - 0.0
22/10:30pm NNW 5 7 - - - - - - - 18.1 - 0.0
22/10:00pm NNW 6 7 - - - - - - - 17.9 - 0.0
22/09:30pm NNW 8 11 - - - - - - - 18.4 - 0.0
22/09:00pm NNW 4 5 - - - - - - - 17.9 - 0.0
22/08:30pm NNW 6 8 - - - - - - - 18.1 - 0.0
22/08:00pm NW 4 5 - - - - - - - 16.9 - 0.0
22/07:30pm NNW 4 5 - - - - - - - 17.4 - 0.0
22/07:00pm NNW 6 8 - - - - - - - 18.2 - 0.0
22/06:30pm NNW 7 8 - - - - - - - 18.8 - 0.0
22/06:00pm N 6 12 - - - - - - - 19.4 - 0.0
22/05:30pm NNE 9 13 - - - - - - - 20.3 - 0.0
22/05:00pm NNE 10 13 - - - - - - - 20.4 - 0.0
22/04:30pm N 9 13 - - - - - - - 20.8 - 0.0
22/04:00pm NNE 9 11 - - - - - - - 21.2 - 0.0
22/03:30pm NNE 9 12 - - - - - - - 21.3 - 0.0
22/03:00pm NNE 7 9 - - - - - - - 21.6 - 0.0
22/02:30pm NE 7 10 - - - - - - - 21.2 - 0.0
22/02:00pm NNE 6 9 - - - - - - - 21.2 - 0.0
22/01:30pm NNE 7 10 - - - - - - - 21.4 - 0.0
22/01:00pm NNE 6 7 - - - - - - - 21.1 - 0.0
22/12:30pm NE 6 9 - - - - - - - 20.9 - 0.0
22/12:00pm ENE 6 8 - - - - - - - 20.5 - 0.0

Other formats

Comma delimited format used in spreadsheet applications
http://www.bom.gov.au/fwo/IDN60701/IDN60701.94749.axf

JavaScript Object Notation format (JSON) in row-major order
http://www.bom.gov.au/fwo/IDN60701/IDN60701.94749.json

Data quality

Most of these data are generated automatically and are frequently updated. Quality checks on data are not normally performed. It is possible for incorrect values to appear. Refer to information at About Latest Weather Observations and please check the disclaimer before using these data.